Time;durP1;ratioP1;P1;durP2;ratioP2;P2;SDS_P1;SDS_P2;PMS_P1;PMS_P2;Temp;Humidity;BMP_temperature;BMP_pressure;BME280_temperature;BME280_humidity;BME280_pressure;Samples;Min_cycle;Max_cycle;Signal;HPM_P1;HPM_P2
2021/03/27 00:02:02;;;;;;;47.25;32.60;;;;;;;5.42;76.53;100505.97;5019422;28;20049;-66
2021/03/27 00:04:42;;;;;;;50.53;33.50;;;;;;;5.38;76.41;100496.34;5033852;28;20045;-67
2021/03/27 00:07:20;;;;;;;45.50;32.90;;;;;;;5.36;76.68;100498.03;5033837;28;20041;-67
2021/03/27 00:10:12;;;;;;;41.83;29.65;;;;;;;5.35;76.38;100493.69;5020535;28;20484;-67
2021/03/27 00:12:43;;;;;;;50.43;32.80;;;;;;;5.27;76.47;100489.22;5018529;28;20048;-67
2021/03/27 00:15:35;;;;;;;49.45;33.10;;;;;;;5.22;76.69;100484.78;5033522;28;20037;-67
2021/03/27 00:18:28;;;;;;;55.60;37.63;;;;;;;5.19;76.87;100484.72;5024443;28;20088;-67
2021/03/27 00:21:16;;;;;;;;;;;;;;;5.12;77.85;100477.63;5022760;28;20055;-67
2021/03/27 00:23:51;;;;;;;45.38;29.67;;;;;;;5.14;77.06;100471.56;5018670;28;19917;-67
2021/03/27 00:26:29;;;;;;;51.35;33.95;;;;;;;5.13;77.14;100464.56;5033320;28;20045;-68
2021/03/27 00:29:01;;;;;;;42.08;30.77;;;;;;;5.12;77.09;100470.66;5032539;28;20025;-67
2021/03/27 00:31:38;;;;;;;45.70;30.60;;;;;;;5.07;76.81;100459.25;5033479;28;20488;-67
2021/03/27 00:34:08;;;;;;;47.83;32.88;;;;;;;5.02;76.79;100466.16;5033418;28;20057;-67
2021/03/27 00:36:39;;;;;;;49.50;31.95;;;;;;;4.95;77.20;100465.19;5033127;28;20044;-67
2021/03/27 00:39:24;;;;;;;44.33;32.05;;;;;;;4.89;77.89;100453.72;5033284;28;20395;-66
2021/03/27 00:41:58;;;;;;;45.38;31.15;;;;;;;4.90;77.18;100460.72;5030857;28;20060;-67
2021/03/27 00:44:30;;;;;;;41.75;30.00;;;;;;;4.88;77.67;100454.59;5031530;28;20036;-67
2021/03/27 00:46:59;;;;;;;47.33;31.27;;;;;;;4.79;76.96;100448.38;5023506;28;20034;-66
2021/03/27 00:49:34;;;;;;;51.97;32.50;;;;;;;4.78;77.92;100445.72;5031639;28;20034;-67
2021/03/27 00:52:09;;;;;;;45.78;31.45;;;;;;;4.76;77.59;100444.81;5023650;28;20041;-67
2021/03/27 00:55:00;;;;;;;46.85;30.90;;;;;;;4.74;77.58;100438.66;5033109;28;20059;-67
2021/03/27 00:57:30;;;;;;;49.45;32.35;;;;;;;4.76;77.66;100436.97;5040052;28;20071;-66
2021/03/27 01:00:18;;;;;;;42.80;29.30;;;;;;;4.76;77.76;100443.06;5032778;28;20060;-67
2021/03/27 01:03:35;;;;;;;46.28;32.58;;;;;;;4.74;77.22;100434.34;5026620;28;20055;-67
2021/03/27 01:06:28;;;;;;;44.10;30.50;;;;;;;4.72;77.52;100429.94;5032519;28;20187;-67
2021/03/27 01:09:11;;;;;;;44.58;30.55;;;;;;;4.73;77.57;100436.94;5033039;28;20132;-67
2021/03/27 01:12:08;;;;;;;46.25;30.75;;;;;;;4.79;77.84;100421.31;4996822;28;20507;-67
2021/03/27 01:14:43;;;;;;;42.00;30.38;;;;;;;4.83;77.76;100421.41;5032545;28;20060;-66
2021/03/27 01:17:13;;;;;;;44.50;29.95;;;;;;;4.86;77.68;100411.84;5032364;28;20031;-67
2021/03/27 01:19:44;;;;;;;43.08;29.30;;;;;;;4.88;78.00;100416.25;5017336;28;20488;-66
2021/03/27 01:22:12;;;;;;;47.47;31.08;;;;;;;4.84;77.61;100415.31;5032550;28;20041;-67
2021/03/27 01:24:37;;;;;;;50.65;32.72;;;;;;;4.80;77.93;100410.91;5016920;28;20036;-67
2021/03/27 01:27:14;;;;;;;45.20;29.52;;;;;;;4.77;77.87;100407.38;5032101;28;20030;-66
2021/03/27 01:30:04;;;;;;;41.47;29.48;;;;;;;4.74;78.49;100413.44;5017491;28;20034;-67
2021/03/27 01:32:40;;;;;;;42.90;29.65;;;;;;;4.73;78.08;100411.66;5032299;28;20153;-67
2021/03/27 01:35:16;;;;;;;44.85;30.40;;;;;;;4.70;78.13;100406.38;5031916;28;20033;-67
2021/03/27 01:37:48;;;;;;;41.35;29.20;;;;;;;4.71;78.34;100400.28;5017746;28;20152;-67
2021/03/27 01:40:38;;;;;;;47.00;31.73;;;;;;;4.70;78.54;100395.94;5031978;28;20108;-67
2021/03/27 01:43:18;;;;;;;46.17;31.90;;;;;;;4.71;78.37;100397.66;5031877;28;20042;-67
2021/03/27 01:45:58;;;;;;;44.28;30.08;;;;;;;4.69;78.15;100393.28;5010413;28;20448;-66
2021/03/27 01:48:42;;;;;;;45.97;30.77;;;;;;;4.69;77.96;100391.56;5030298;28;20479;-66
2021/03/27 01:51:23;;;;;;;38.38;27.38;;;;;;;4.69;78.13;100388.94;5031793;28;20029;-67
2021/03/27 01:53:58;;;;;;;39.42;28.52;;;;;;;4.65;77.92;100392.34;5019544;28;20043;-67
2021/03/27 01:56:56;;;;;;;42.40;27.98;;;;;;;4.64;78.16;100385.38;5031506;28;20041;-67
2021/03/27 01:59:36;;;;;;;44.53;29.40;;;;;;;4.68;77.83;100381.06;5031792;28;20044;-66
2021/03/27 02:02:10;;;;;;;42.90;28.83;;;;;;;4.72;77.53;100386.38;5031687;28;20037;-67
2021/03/27 02:04:51;;;;;;;42.28;27.30;;;;;;;4.75;77.42;100388.16;5015572;28;20042;-66
2021/03/27 02:07:25;;;;;;;41.23;28.67;;;;;;;4.78;77.54;100388.19;5031402;28;20046;-66
2021/03/27 02:10:07;;;;;;;39.83;27.63;;;;;;;4.76;77.25;100389.91;5031571;28;20287;-67
2021/03/27 02:12:54;;;;;;;41.70;28.77;;;;;;;4.70;77.11;100395.06;5031715;28;20407;-67
2021/03/27 02:15:51;;;;;;;42.28;29.20;;;;;;;4.60;77.57;100394.91;5031367;28;20145;-67
2021/03/27 02:18:23;;;;;;;34.80;24.52;;;;;;;4.52;77.31;100399.13;5031518;28;20034;-67
2021/03/27 02:21:10;;;;;;;35.97;24.95;;;;;;;4.51;77.36;100399.13;5031397;28;20045;-67
2021/03/27 02:24:01;;;;;;;44.92;29.67;;;;;;;4.51;78.22;100396.50;5015178;28;20125;-66
2021/03/27 02:26:47;;;;;;;36.90;24.45;;;;;;;4.52;77.89;100396.50;5031150;28;20025;-67
2021/03/27 02:29:46;;;;;;;43.88;28.10;;;;;;;4.54;77.79;100394.81;5031186;28;20073;-67
2021/03/27 02:32:28;;;;;;;45.88;29.83;;;;;;;4.55;77.97;100400.91;5031289;28;20577;-67
2021/03/27 02:35:01;;;;;;;38.42;24.08;;;;;;;4.53;77.43;100397.38;5031198;28;20047;-66
2021/03/27 02:37:44;;;;;;;34.50;23.98;;;;;;;4.54;77.92;100404.38;5031250;28;20556;-66
2021/03/27 02:40:28;;;;;;;33.00;22.80;;;;;;;4.56;77.96;100400.94;5031168;28;20030;-69
2021/03/27 02:43:38;;;;;;;36.50;25.15;;;;;;;4.57;78.07;100401.81;5019741;28;20073;-69
2021/03/27 02:46:26;;;;;;;32.10;22.42;;;;;;;4.57;77.96;100399.19;5022528;28;20041;-69
2021/03/27 02:49:13;;;;;;;27.42;20.92;;;;;;;4.60;77.43;100389.66;5019259;28;20052;-69
2021/03/27 02:51:45;;;;;;;33.08;22.45;;;;;;;4.61;77.40;100393.16;5018626;28;20045;-68
2021/03/27 02:54:26;;;;;;;30.60;21.15;;;;;;;4.61;77.18;100396.66;5035167;28;20033;-69
2021/03/27 02:57:02;;;;;;;37.75;25.13;;;;;;;4.60;77.62;100394.03;5034888;28;20059;-69
2021/03/27 02:59:51;;;;;;;34.55;22.20;;;;;;;4.53;77.63;100397.38;5025729;28;20045;-69
2021/03/27 03:02:23;;;;;;;34.53;24.23;;;;;;;4.57;77.68;100388.75;5035089;28;20431;-69
2021/03/27 03:05:13;;;;;;;35.20;23.20;;;;;;;4.62;77.93;100387.09;5034913;28;20037;-69
2021/03/27 03:07:47;;;;;;;33.97;22.33;;;;;;;4.68;77.44;100389.78;5019769;28;20041;-70
2021/03/27 03:10:33;;;;;;;35.65;23.38;;;;;;;4.73;77.26;100393.34;5034755;28;20495;-68
2021/03/27 03:13:37;;;;;;;33.28;22.48;;;;;;;4.83;77.29;100397.88;5034941;28;20030;-68
2021/03/27 03:16:31;;;;;;;32.55;20.38;;;;;;;4.90;76.88;100393.63;4977076;28;20457;-67
2021/03/27 03:19:15;;;;;;;28.95;18.88;;;;;;;4.98;76.85;100388.50;4969064;28;20052;-67
2021/03/27 03:21:46;;;;;;;26.92;18.52;;;;;;;5.10;76.53;100382.56;5034979;28;20440;-67
2021/03/27 03:24:28;;;;;;;29.40;19.52;;;;;;;5.25;76.02;100388.00;5034596;28;20124;-67
2021/03/27 03:27:18;;;;;;;27.38;19.25;;;;;;;5.41;75.33;100386.44;5034389;28;20036;-67
2021/03/27 03:30:20;;;;;;;25.58;17.55;;;;;;;5.55;75.09;100387.47;5020402;28;20040;-67
2021/03/27 03:33:06;;;;;;;28.00;18.20;;;;;;;5.64;74.53;100390.22;5021150;28;20069;-67
2021/03/27 03:35:51;;;;;;;27.58;18.17;;;;;;;5.68;74.06;100389.38;5034317;28;20053;-68
2021/03/27 03:38:50;;;;;;;25.45;18.08;;;;;;;5.71;74.02;100384.19;5034338;28;20036;-67
2021/03/27 03:41:37;;;;;;;31.10;21.40;;;;;;;5.77;74.04;100393.00;5034369;28;20038;-67
2021/03/27 03:44:31;;;;;;;24.17;16.98;;;;;;;5.83;74.13;100395.66;5034084;28;20037;-68
2021/03/27 03:47:21;;;;;;;23.63;17.65;;;;;;;5.84;74.06;100392.16;5023485;28;20033;-67
2021/03/27 03:50:15;;;;;;;23.55;16.60;;;;;;;5.92;73.81;100380.03;5020928;28;20049;-67
2021/03/27 03:53:04;;;;;;;24.30;14.85;;;;;;;6.03;73.71;100373.22;5019503;28;20117;-67
2021/03/27 03:55:41;;;;;;;23.98;17.10;;;;;;;6.17;73.41;100370.72;5004666;28;20392;-67
2021/03/27 03:58:21;;;;;;;21.90;13.88;;;;;;;6.20;72.36;100373.34;5034044;28;20556;-67
2021/03/27 04:01:05;;;;;;;22.48;16.15;;;;;;;6.27;72.80;100366.44;5020904;28;20052;-67
2021/03/27 04:03:38;;;;;;;25.60;17.73;;;;;;;6.33;72.65;100366.47;5032497;28;20045;-66
2021/03/27 04:06:12;;;;;;;21.10;14.45;;;;;;;6.33;72.43;100363.88;5033950;28;20474;-67
2021/03/27 04:08:43;;;;;;;23.38;15.45;;;;;;;6.33;72.47;100364.72;5018406;28;20436;-67
2021/03/27 04:11:38;;;;;;;23.73;16.33;;;;;;;6.22;72.89;100357.66;5033840;28;20034;-67
2021/03/27 04:14:48;;;;;;;21.63;15.40;;;;;;;6.06;73.56;100357.50;5016355;28;20049;-67
2021/03/27 04:17:30;;;;;;;24.20;17.45;;;;;;;6.02;73.79;100365.31;5027678;28;20057;-68
2021/03/27 04:20:08;;;;;;;23.48;16.50;;;;;;;6.06;73.15;100369.75;5024184;28;20488;-67
2021/03/27 04:22:39;;;;;;;28.58;17.80;;;;;;;6.12;73.49;100368.03;5033606;28;20087;-67
2021/03/27 04:25:10;;;;;;;23.25;15.38;;;;;;;6.17;72.84;100373.34;5033290;28;20044;-66
2021/03/27 04:27:50;;;;;;;26.15;16.58;;;;;;;6.16;73.13;100374.22;5017544;28;20484;-67
2021/03/27 04:30:24;;;;;;;22.83;15.45;;;;;;;6.15;72.83;100369.81;5033327;28;20029;-67
2021/03/27 04:33:11;;;;;;;24.70;16.52;;;;;;;6.13;73.28;100369.81;5032141;28;20037;-66
2021/03/27 04:35:45;;;;;;;24.00;15.00;;;;;;;6.10;73.00;100361.03;5010714;28;20038;-67
2021/03/27 04:38:17;;;;;;;24.70;16.23;;;;;;;6.04;73.00;100359.25;5026493;28;20041;-67
2021/03/27 04:40:54;;;;;;;24.00;16.35;;;;;;;5.98;73.55;100361.81;5033308;28;20045;-67
2021/03/27 04:43:25;;;;;;;21.35;15.32;;;;;;;5.90;72.92;100358.22;5033109;28;20037;-68
2021/03/27 04:45:57;;;;;;;22.43;14.90;;;;;;;5.83;73.06;100359.00;5033127;28;20041;-67
2021/03/27 04:48:44;;;;;;;22.95;16.25;;;;;;;5.76;73.34;100367.66;5033213;28;20033;-67
2021/03/27 04:51:28;;;;;;;24.70;16.52;;;;;;;5.66;73.65;100367.56;5033129;28;20034;-67
2021/03/27 04:54:03;;;;;;;19.52;14.40;;;;;;;5.59;73.82;100363.09;5021759;28;20072;-67
2021/03/27 04:56:43;;;;;;;22.02;15.85;;;;;;;5.53;73.69;100368.28;5032931;28;20381;-67
2021/03/27 04:59:15;;;;;;;19.83;14.45;;;;;;;5.46;73.77;100364.69;5032860;28;20041;-67
2021/03/27 05:02:03;;;;;;;26.33;15.70;;;;;;;5.44;74.16;100368.16;5018153;28;20075;-67
2021/03/27 05:04:48;;;;;;;26.05;16.90;;;;;;;5.39;74.48;100349.78;5018952;28;20411;-68
2021/03/27 05:07:21;;;;;;;28.17;17.25;;;;;;;5.35;74.41;100366.31;5019336;28;20033;-67
2021/03/27 05:09:52;;;;;;;24.40;16.67;;;;;;;5.37;74.36;100371.56;5032619;28;20033;-68
2021/03/27 05:12:26;;;;;;;27.90;19.08;;;;;;;5.36;74.87;100367.19;5033054;28;20037;-68
2021/03/27 05:15:05;;;;;;;30.38;19.20;;;;;;;5.36;74.54;100368.06;5032149;28;20488;-67
2021/03/27 05:17:43;;;;;;;35.65;22.50;;;;;;;5.40;74.27;100359.41;5032685;28;20049;-67
2021/03/27 05:20:31;;;;;;;26.77;17.77;;;;;;;5.44;74.16;100355.06;5032327;28;20079;-68
2021/03/27 05:23:23;;;;;;;23.70;16.73;;;;;;;5.51;74.52;100356.03;5022024;28;20059;-67
2021/03/27 05:26:07;;;;;;;23.48;15.55;;;;;;;5.53;74.54;100352.56;5019594;28;20087;-68
2021/03/27 05:29:00;;;;;;;23.90;15.50;;;;;;;5.63;74.42;100359.69;5032219;28;20048;-67
2021/03/27 05:31:54;;;;;;;22.67;16.40;;;;;;;5.78;74.82;100360.69;5032480;28;20071;-67
2021/03/27 05:34:29;;;;;;;21.70;14.45;;;;;;;5.92;74.35;100369.56;5008935;28;20042;-67
2021/03/27 05:37:14;;;;;;;20.60;14.23;;;;;;;5.99;74.01;100363.56;5031858;28;20086;-67
2021/03/27 05:39:51;;;;;;;25.42;17.13;;;;;;;6.04;73.67;100368.84;5017106;28;20030;-67
2021/03/27 05:42:54;;;;;;;26.08;15.95;;;;;;;6.13;73.87;100374.16;5032197;28;20033;-67
2021/03/27 05:45:37;;;;;;;29.90;19.07;;;;;;;6.27;73.66;100382.16;5032157;28;20446;-67
2021/03/27 05:48:25;;;;;;;24.17;16.48;;;;;;;6.36;72.98;100371.75;5032165;28;20409;-67
2021/03/27 05:51:24;;;;;;;30.42;17.38;;;;;;;6.42;73.23;100378.78;5029623;28;20041;-67
2021/03/27 05:54:10;;;;;;;29.27;18.50;;;;;;;6.43;73.58;100373.56;5031780;28;20037;-67
2021/03/27 05:57:20;;;;;;;33.17;17.58;;;;;;;6.44;73.62;100358.72;5031571;28;20049;-68
2021/03/27 06:00:26;;;;;;;22.92;16.25;;;;;;;6.50;73.79;100369.25;5015814;28;20037;-68
2021/03/27 06:03:22;;;;;;;27.33;16.73;;;;;;;6.58;73.72;100372.81;5012640;28;20037;-68
2021/03/27 06:06:08;;;;;;;24.88;16.23;;;;;;;6.70;73.38;100377.25;5018401;28;20120;-69
2021/03/27 06:09:00;;;;;;;21.85;15.75;;;;;;;6.78;73.03;100375.56;5031661;28;20042;-69
2021/03/27 06:12:13;;;;;;;22.45;14.18;;;;;;;6.95;73.35;100366.06;5031661;28;20047;-69
2021/03/27 06:14:56;;;;;;;23.35;14.20;;;;;;;7.14;72.69;100376.66;5005526;28;20496;-69
2021/03/27 06:17:37;;;;;;;16.85;10.85;;;;;;;7.40;72.02;100369.78;5031273;28;20050;-68
2021/03/27 06:20:21;;;;;;;55.28;31.10;;;;;;;7.72;71.19;100369.00;5031453;28;20132;-69
2021/03/27 06:23:16;;;;;;;23.23;14.20;;;;;;;8.01;70.61;100365.59;5018206;28;20029;-69
2021/03/27 06:25:54;;;;;;;17.73;11.45;;;;;;;8.30;69.84;100365.59;5015939;28;20061;-69
2021/03/27 06:28:51;;;;;;;14.55;10.75;;;;;;;8.60;69.62;100356.88;5031365;28;20496;-69
2021/03/27 06:31:36;;;;;;;14.50;9.98;;;;;;;8.81;69.34;100350.72;5031346;28;20034;-69
2021/03/27 06:34:10;;;;;;;16.55;9.82;;;;;;;8.98;69.02;100354.16;5031194;28;20488;-68
2021/03/27 06:36:50;;;;;;;13.95;9.20;;;;;;;9.17;69.20;100355.00;5014976;28;20033;-69
2021/03/27 06:39:30;;;;;;;13.20;9.05;;;;;;;9.35;68.28;100358.44;5015610;28;20034;-69
2021/03/27 06:42:26;;;;;;;12.98;8.38;;;;;;;9.54;67.13;100365.41;5016358;28;20099;-69
2021/03/27 06:45:13;;;;;;;11.15;8.23;;;;;;;9.69;66.18;100364.44;5023016;28;20075;-69
2021/03/27 06:48:15;;;;;;;13.70;8.13;;;;;;;9.85;66.12;100359.94;5023882;28;20037;-68
2021/03/27 06:51:16;;;;;;;11.00;7.75;;;;;;;10.07;64.52;100366.84;5019673;28;20034;-69
2021/03/27 06:53:51;;;;;;;13.25;8.30;;;;;;;10.28;64.42;100370.25;5017462;28;20042;-69
2021/03/27 06:56:51;;;;;;;12.57;7.95;;;;;;;10.44;63.51;100366.59;5030821;28;20423;-69
2021/03/27 06:59:36;;;;;;;11.73;8.00;;;;;;;10.63;62.64;100369.09;5031056;28;20036;-69
2021/03/27 07:02:43;;;;;;;10.40;7.65;;;;;;;10.77;61.99;100377.75;5030612;28;20049;-69
2021/03/27 07:05:46;;;;;;;11.70;7.97;;;;;;;10.82;61.58;100382.97;5023263;28;20091;-69
2021/03/27 07:08:33;;;;;;;13.15;7.72;;;;;;;10.88;61.96;100390.88;5017771;28;20056;-69
2021/03/27 07:11:32;;;;;;;14.15;7.72;;;;;;;10.93;61.38;100392.56;5031187;28;20055;-68
2021/03/27 07:14:25;;;;;;;13.77;9.25;;;;;;;11.07;60.40;100399.47;5020507;28;20041;-69
2021/03/27 07:17:13;;;;;;;13.52;7.80;;;;;;;11.24;59.97;100407.19;5018425;28;20563;-69
2021/03/27 07:20:02;;;;;;;12.05;7.45;;;;;;;11.32;58.67;100403.59;5015479;28;20041;-68
2021/03/27 07:22:49;;;;;;;11.48;8.02;;;;;;;11.49;58.65;100413.09;5037979;28;20037;-68
2021/03/27 07:25:59;;;;;;;11.73;7.28;;;;;;;11.55;58.40;100405.09;5030482;28;20065;-68
2021/03/27 07:28:42;;;;;;;15.18;7.57;;;;;;;11.59;59.01;100425.31;5030807;28;20041;-69
2021/03/27 07:31:19;;;;;;;11.40;7.40;;;;;;;11.59;59.33;100428.81;5030735;28;20394;-69
2021/03/27 07:33:54;;;;;;;13.00;7.97;;;;;;;11.54;59.52;100443.00;5016708;28;20072;-68
2021/03/27 07:36:42;;;;;;;16.08;8.35;;;;;;;11.50;60.93;100454.47;5030865;28;20037;-70
2021/03/27 07:39:35;;;;;;;10.43;7.13;;;;;;;11.26;62.97;100461.78;5034370;28;20675;-69
2021/03/27 07:42:30;;;;;;;11.63;7.20;;;;;;;10.93;65.09;100474.41;5024845;28;20666;-69
2021/03/27 07:45:31;;;;;;;10.65;7.70;;;;;;;10.74;67.26;100481.63;5007918;28;20072;-69
2021/03/27 07:47:59;;;;;;;13.38;7.47;;;;;;;10.52;68.14;100491.44;5031638;28;20567;-68
2021/03/27 07:50:50;;;;;;;10.60;6.95;;;;;;;10.39;68.94;100497.66;5034007;28;20064;-68
2021/03/27 07:53:43;;;;;;;11.20;7.82;;;;;;;10.23;70.43;100525.88;5041106;28;20053;-68
2021/03/27 07:56:17;;;;;;;12.02;8.00;;;;;;;10.08;72.40;100516.25;5033875;28;20107;-69
2021/03/27 07:59:01;;;;;;;11.35;7.68;;;;;;;9.92;74.32;100516.34;5019687;28;20033;-69
2021/03/27 08:01:33;;;;;;;12.40;8.13;;;;;;;9.73;76.12;100544.53;5034086;28;20034;-69
2021/03/27 08:04:17;;;;;;;;;;;;;;;9.52;76.99;100554.22;5034402;28;20033;-68
2021/03/27 08:06:53;;;;;;;12.85;8.45;;;;;;;9.44;78.18;100556.84;5019094;28;19917;-69
2021/03/27 08:09:59;;;;;;;20.05;8.93;;;;;;;9.29;78.73;100580.56;5033690;28;20048;-69
2021/03/27 08:12:52;;;;;;;14.57;9.65;;;;;;;9.19;80.92;100621.81;5014942;28;20094;-68
2021/03/27 08:15:37;;;;;;;10.77;6.95;;;;;;;9.04;79.93;100621.81;5033372;28;20048;-68
2021/03/27 08:18:28;;;;;;;7.95;3.65;;;;;;;8.68;79.37;100647.16;5033694;28;20464;-68
2021/03/27 08:21:24;;;;;;;6.75;3.15;;;;;;;8.38;80.41;100652.25;5022079;28;20470;-68
2021/03/27 08:24:02;;;;;;;5.80;3.28;;;;;;;8.31;80.38;100641.72;5017536;28;20094;-67
2021/03/27 08:26:56;;;;;;;5.65;3.15;;;;;;;8.26;80.48;100646.06;5033314;28;20029;-68
2021/03/27 08:29:43;;;;;;;8.38;3.15;;;;;;;8.23;79.62;100672.34;5032216;28;20045;-68
2021/03/27 08:32:26;;;;;;;19.40;3.38;;;;;;;8.17;80.70;100679.31;5033398;28;20048;-68
2021/03/27 08:35:29;;;;;;;7.75;3.92;;;;;;;8.11;81.08;100682.78;5014412;28;20033;-68
2021/03/27 08:38:13;;;;;;;;;;;;;;;8.07;79.99;100697.69;5033597;28;20488;-68
2021/03/27 08:41:19;;;;;;;5.18;2.90;;;;;;;7.97;80.18;100711.63;5017603;28;19979;-68
2021/03/27 08:43:58;;;;;;;5.07;2.70;;;;;;;7.88;79.47;100701.91;5019058;28;20040;-68
2021/03/27 08:46:42;;;;;;;3.53;1.50;;;;;;;7.82;77.96;100736.03;5032814;28;20045;-68
2021/03/27 08:49:47;;;;;;;4.25;2.00;;;;;;;7.74;79.30;100734.22;5032203;28;20083;-68
2021/03/27 08:52:27;;;;;;;1.73;1.00;;;;;;;7.68;77.34;100735.03;5023249;28;20083;-69
2021/03/27 08:55:30;;;;;;;4.88;2.20;;;;;;;7.66;78.08;100757.78;5018603;28;20129;-68
2021/03/27 08:58:22;;;;;;;1.85;1.08;;;;;;;7.73;75.99;100761.31;5008960;28;20032;-68
2021/03/27 09:01:06;;;;;;;3.15;1.70;;;;;;;7.78;77.00;100754.38;5007116;28;20037;-68
2021/03/27 09:03:53;;;;;;;3.72;1.20;;;;;;;7.78;74.71;100757.91;5022190;28;20041;-68
2021/03/27 09:06:29;;;;;;;1.98;1.02;;;;;;;7.89;74.21;100776.38;5032024;28;20120;-68
2021/03/27 09:09:20;;;;;;;2.38;1.13;;;;;;;7.84;74.58;100771.09;5032436;28;20519;-69
2021/03/27 09:12:22;;;;;;;3.08;1.55;;;;;;;8.03;73.88;100793.13;5024730;28;20037;-68
2021/03/27 09:15:13;;;;;;;4.80;1.60;;;;;;;8.17;73.82;100800.25;5023229;28;20030;-68
2021/03/27 09:17:51;;;;;;;2.78;1.35;;;;;;;8.37;72.57;100797.78;5011538;28;20042;-68
2021/03/27 09:20:37;;;;;;;3.28;1.48;;;;;;;8.45;71.88;100798.75;5029769;28;20061;-68
2021/03/27 09:23:19;;;;;;;2.85;1.73;;;;;;;8.61;71.11;100794.47;5032232;28;20037;-68
2021/03/27 09:26:12;;;;;;;3.22;1.50;;;;;;;8.63;71.72;100825.19;5018072;28;20038;-69
2021/03/27 09:28:51;;;;;;;2.90;1.42;;;;;;;8.58;71.10;100821.63;5016174;28;20037;-69
2021/03/27 09:31:46;;;;;;;2.47;1.10;;;;;;;8.39;71.51;100843.41;5030005;28;20069;-68
2021/03/27 09:34:33;;;;;;;4.60;1.50;;;;;;;8.43;71.90;100829.41;5031855;28;20075;-68
2021/03/27 09:37:11;;;;;;;2.67;1.27;;;;;;;8.50;70.84;100836.50;5030373;28;20472;-68
2021/03/27 09:39:47;;;;;;;2.83;1.33;;;;;;;8.54;71.87;100831.28;5031902;28;20767;-69
2021/03/27 09:42:44;;;;;;;2.35;1.25;;;;;;;8.70;70.02;100848.03;5031908;28;20041;-68
2021/03/27 09:45:37;;;;;;;3.08;1.17;;;;;;;8.91;70.18;100852.56;5031635;28;20134;-69
2021/03/27 09:48:27;;;;;;;;;;;;;;;8.93;69.61;100847.28;5023262;28;20044;-68
2021/03/27 09:50:57;;;;;;;2.40;1.10;;;;;;;9.06;68.89;100875.44;5019686;28;19924;-69
2021/03/27 09:53:56;;;;;;;2.80;1.35;;;;;;;9.31;69.44;100859.78;5031641;28;20050;-68
2021/03/27 09:56:48;;;;;;;3.50;1.10;;;;;;;9.50;68.10;100872.13;5020142;28;20103;-69
2021/03/27 09:59:38;;;;;;;3.17;1.02;;;;;;;9.69;67.34;100877.47;5031451;28;20124;-69
2021/03/27 10:02:22;;;;;;;3.08;1.63;;;;;;;9.81;65.31;100881.00;5029469;28;20112;-69
2021/03/27 10:04:59;;;;;;;4.75;2.05;;;;;;;9.65;64.59;100882.72;5018509;28;20115;-68
2021/03/27 10:07:36;;;;;;;3.75;2.17;;;;;;;9.62;62.75;100885.34;5031360;28;20125;-69
2021/03/27 10:10:17;;;;;;;3.40;2.08;;;;;;;9.58;63.02;100883.56;5031260;28;20029;-69
2021/03/27 10:13:00;;;;;;;4.20;2.45;;;;;;;9.60;61.69;100888.84;5016903;28;20060;-69
2021/03/27 10:15:34;;;;;;;4.32;2.22;;;;;;;9.63;61.05;100888.88;5018451;28;20057;-69
2021/03/27 10:18:14;;;;;;;4.45;2.08;;;;;;;9.75;61.04;100895.94;5021513;28;20496;-68
2021/03/27 10:20:48;;;;;;;4.65;2.42;;;;;;;9.85;61.50;100892.44;5003795;28;20112;-68
2021/03/27 10:23:23;;;;;;;5.32;2.85;;;;;;;10.10;59.22;100914.47;5022273;28;20060;-69
2021/03/27 10:26:26;;;;;;;4.60;2.20;;;;;;;10.21;59.59;100910.09;5013270;28;20083;-69
2021/03/27 10:29:02;;;;;;;5.80;2.60;;;;;;;10.30;60.32;100881.13;5022506;28;20073;-68
2021/03/27 10:31:42;;;;;;;3.15;2.10;;;;;;;10.59;57.55;100876.75;5029952;28;20037;-69
2021/03/27 10:34:26;;;;;;;3.08;1.98;;;;;;;10.79;59.16;100882.84;5027634;28;20163;-70
2021/03/27 10:37:33;;;;;;;3.17;1.80;;;;;;;10.82;57.52;100885.50;5016761;28;20064;-69
2021/03/27 10:40:21;;;;;;;4.80;2.10;;;;;;;10.67;55.10;100906.66;5005390;28;20085;-69
2021/03/27 10:43:25;;;;;;;5.43;1.83;;;;;;;10.65;56.10;100897.84;5006588;28;20030;-69
2021/03/27 10:46:17;;;;;;;3.38;1.75;;;;;;;10.76;55.67;100898.69;5011270;28;20037;-69
2021/03/27 10:49:01;;;;;;;3.75;1.70;;;;;;;10.92;56.04;100886.34;5022011;28;20037;-69
2021/03/27 10:51:51;;;;;;;3.90;1.58;;;;;;;10.93;54.00;100899.56;5026192;28;20030;-69
2021/03/27 10:54:35;;;;;;;2.45;1.52;;;;;;;10.55;51.90;100917.19;5030932;28;20117;-69
2021/03/27 10:57:13;;;;;;;4.07;1.23;;;;;;;10.28;51.61;100918.94;5030655;28;20045;-69
2021/03/27 10:59:58;;;;;;;3.25;1.48;;;;;;;10.14;54.11;100897.78;5012083;28;20034;-69
2021/03/27 11:02:34;;;;;;;6.55;1.63;;;;;;;10.12;54.92;100906.56;5018864;28;20042;-69
2021/03/27 11:05:15;;;;;;;3.20;1.00;;;;;;;10.08;54.11;100924.13;5030566;28;20073;-69
2021/03/27 11:08:06;;;;;;;4.93;1.60;;;;;;;10.18;54.44;100922.41;5015592;28;20045;-69
2021/03/27 11:11:04;;;;;;;3.60;1.60;;;;;;;10.51;52.20;100918.97;5016994;28;20050;-69
2021/03/27 11:14:01;;;;;;;4.28;1.80;;;;;;;10.91;53.31;100921.56;5033344;28;20423;-69
2021/03/27 11:17:04;;;;;;;4.25;1.90;;;;;;;11.46;51.88;100915.28;5023028;28;20041;-69
2021/03/27 11:19:30;;;;;;;3.03;1.70;;;;;;;11.75;49.59;100901.94;5025667;28;20118;-69
2021/03/27 11:22:28;;;;;;;3.88;1.58;;;;;;;12.04;48.08;100917.66;5021442;28;20193;-70
2021/03/27 11:25:18;;;;;;;3.53;1.50;;;;;;;12.07;48.59;100909.72;5018788;28;20120;-69
2021/03/27 11:28:03;;;;;;;3.50;1.70;;;;;;;12.16;46.02;100941.41;5028372;28;20506;-69
2021/03/27 11:30:48;;;;;;;3.83;1.50;;;;;;;12.36;47.31;100920.09;5029713;28;20041;-69
2021/03/27 11:33:25;;;;;;;4.10;2.28;;;;;;;12.46;43.97;100923.56;5022555;28;20034;-69
2021/03/27 11:36:02;;;;;;;3.42;1.70;;;;;;;12.26;44.67;100961.66;5018584;28;20034;-69
2021/03/27 11:38:37;;;;;;;2.17;1.10;;;;;;;12.21;43.81;100941.41;5026801;28;20041;-69
2021/03/27 11:41:19;;;;;;;5.45;1.55;;;;;;;11.97;44.44;100924.78;5029600;28;20103;-69
2021/03/27 11:43:51;;;;;;;3.42;1.25;;;;;;;11.97;45.40;100937.09;5017189;28;20041;-69
2021/03/27 11:46:25;;;;;;;3.63;1.40;;;;;;;12.19;43.49;100962.56;5033959;28;20029;-69
2021/03/27 11:49:06;;;;;;;3.85;1.25;;;;;;;12.18;42.16;100942.28;5033977;28;20591;-69
2021/03/27 11:51:48;;;;;;;3.65;1.10;;;;;;;12.05;40.22;100957.34;5028167;28;20146;-70
2021/03/27 11:54:25;;;;;;;2.92;1.10;;;;;;;11.87;42.37;100940.69;5033903;28;20037;-70
2021/03/27 11:57:02;;;;;;;4.07;1.30;;;;;;;12.01;43.42;100960.88;5033716;28;20143;-70
2021/03/27 11:59:42;;;;;;;3.75;1.05;;;;;;;11.91;41.28;100940.66;5033834;28;20034;-69
2021/03/27 12:02:35;;;;;;;4.25;1.23;;;;;;;11.67;41.08;100957.50;5033783;28;20484;-70
2021/03/27 12:05:12;;;;;;;3.78;1.20;;;;;;;11.66;42.32;100945.16;5023704;28;20108;-70
2021/03/27 12:07:56;;;;;;;2.20;1.00;;;;;;;11.70;41.47;100946.03;5017688;28;20511;-69
2021/03/27 12:10:33;;;;;;;3.17;1.10;;;;;;;11.59;41.34;100956.66;5033472;28;20042;-70
2021/03/27 12:13:11;;;;;;;3.17;1.13;;;;;;;11.89;40.53;100954.78;5033743;28;20419;-69
2021/03/27 12:15:48;;;;;;;3.08;0.80;;;;;;;11.99;41.03;100943.28;5033389;28;20069;-70
2021/03/27 12:18:17;;;;;;;3.92;1.25;;;;;;;11.85;42.23;100944.19;5033508;28;20124;-69
2021/03/27 12:21:08;;;;;;;4.65;1.50;;;;;;;11.81;42.54;100945.06;5033575;28;20049;-70
2021/03/27 12:23:44;;;;;;;2.75;1.10;;;;;;;12.27;42.08;100952.81;5032238;28;20034;-69
2021/03/27 12:26:18;;;;;;;4.65;1.35;;;;;;;12.61;42.45;100964.94;5033074;28;20052;-70
2021/03/27 12:29:16;;;;;;;3.22;1.33;;;;;;;12.78;42.03;100989.50;5018860;28;20048;-69
2021/03/27 12:32:00;;;;;;;2.17;1.02;;;;;;;12.93;40.66;100944.34;5018464;28;20041;-69
2021/03/27 12:34:37;;;;;;;2.72;1.25;;;;;;;13.06;39.87;100973.38;5033129;28;20040;-69
2021/03/27 12:37:13;;;;;;;3.03;0.90;;;;;;;12.98;37.47;100997.28;5033047;28;20033;-70
2021/03/27 12:39:51;;;;;;;1.65;0.60;;;;;;;13.20;38.70;100949.38;5017312;28;20022;-70
2021/03/27 12:42:20;;;;;;;1.75;0.70;;;;;;;13.59;38.70;100962.22;5033029;28;20040;-70